Time;durP1;ratioP1;P1;durP2;ratioP2;P2;SDS_P1;SDS_P2;PMS_P1;PMS_P2;Temp;Humidity;BMP_temperature;BMP_pressure;BME280_temperature;BME280_humidity;BME280_pressure;Samples;Min_cycle;Max_cycle;Signal;HPM_P1;HPM_P2
2021/08/13 00:01:08;;;;;;;11.43;6.80;;;;;;;19.41;84.74;99332.06;5010509;28;20026;-63
2021/08/13 00:03:54;;;;;;;9.52;7.10;;;;;;;19.38;84.99;99334.91;5016706;28;20097;-63
2021/08/13 00:06:41;;;;;;;9.93;7.47;;;;;;;19.33;84.79;99328.25;5012623;28;20381;-62
2021/08/13 00:09:27;;;;;;;9.05;7.93;;;;;;;19.31;85.58;99338.81;5023521;28;20037;-62
2021/08/13 00:12:13;;;;;;;9.13;7.97;;;;;;;19.30;85.47;99345.03;5023317;28;20033;-62
2021/08/13 00:14:59;;;;;;;10.00;8.05;;;;;;;19.24;85.44;99343.66;5022993;28;20108;-63
2021/08/13 00:17:45;;;;;;;7.88;7.07;;;;;;;19.26;85.55;99344.38;5023302;28;20152;-63
2021/08/13 00:20:34;;;;;;;10.63;7.75;;;;;;;19.24;85.39;99345.41;5023292;28;20227;-63
2021/08/13 00:23:20;;;;;;;8.25;7.43;;;;;;;19.19;86.18;99348.34;5023112;28;20021;-62
2021/08/13 00:26:06;;;;;;;7.72;6.68;;;;;;;19.16;86.15;99345.91;5022803;28;20244;-63
2021/08/13 00:28:52;;;;;;;11.27;7.07;;;;;;;19.12;86.91;99337.38;5022527;28;20027;-62
2021/08/13 00:31:37;;;;;;;7.65;6.95;;;;;;;19.16;86.29;99345.06;5024060;28;20032;-61
2021/08/13 00:34:23;;;;;;;8.02;6.93;;;;;;;19.14;86.52;99348.63;5023463;28;20344;-62
2021/08/13 00:37:09;;;;;;;9.98;6.20;;;;;;;19.14;86.75;99351.25;5022169;28;20227;-62
2021/08/13 00:39:55;;;;;;;6.88;6.18;;;;;;;19.14;86.95;99346.00;5023053;28;20022;-63
2021/08/13 00:42:41;;;;;;;6.22;5.63;;;;;;;19.17;86.01;99344.97;5022462;28;20083;-62
2021/08/13 00:45:27;;;;;;;10.63;6.03;;;;;;;19.21;86.33;99354.34;5023531;28;20026;-63
2021/08/13 00:48:13;;;;;;;8.05;5.55;;;;;;;19.21;85.73;99351.72;5022247;28;20231;-63
2021/08/13 00:50:59;;;;;;;6.53;5.68;;;;;;;19.25;85.98;99349.72;5022538;28;20030;-62
2021/08/13 00:53:45;;;;;;;7.28;6.35;;;;;;;19.28;85.21;99346.91;5023070;28;20034;-64
2021/08/13 00:56:31;;;;;;;9.82;7.40;;;;;;;19.26;85.04;99349.63;5022025;28;20133;-63
2021/08/13 00:59:17;;;;;;;8.85;7.97;;;;;;;19.23;84.94;99336.69;5021218;28;20018;-64
2021/08/13 01:02:03;;;;;;;8.52;7.25;;;;;;;19.22;85.16;99347.31;5022866;28;20141;-64
2021/08/13 01:04:49;;;;;;;7.93;7.13;;;;;;;19.18;85.27;99337.94;5022904;28;20029;-64
2021/08/13 01:07:35;;;;;;;10.48;7.53;;;;;;;19.18;85.39;99330.06;5021589;28;20100;-62
2021/08/13 01:10:24;;;;;;;11.27;7.22;;;;;;;19.15;85.50;99333.72;5022396;28;20358;-62
2021/08/13 01:13:20;;;;;;;8.38;6.93;;;;;;;19.10;85.59;99318.25;5022096;28;20030;-62
2021/08/13 01:16:06;;;;;;;8.80;6.65;;;;;;;19.14;85.11;99326.78;5021807;28;20266;-62
2021/08/13 01:19:08;;;;;;;7.18;6.03;;;;;;;18.99;84.47;99327.75;5021460;28;20017;-62
2021/08/13 01:22:06;;;;;;;6.53;5.63;;;;;;;18.62;85.05;99273.09;5008632;28;20033;-62
2021/08/13 01:24:54;;;;;;;7.85;5.93;;;;;;;18.70;85.37;99289.22;5022290;28;20116;-62
2021/08/13 01:27:44;;;;;;;6.88;5.45;;;;;;;18.61;84.45;99266.16;5021528;28;20057;-62
2021/08/13 01:30:34;;;;;;;9.50;5.70;;;;;;;18.82;84.84;99299.91;5022205;28;20025;-61
2021/08/13 01:33:22;;;;;;;8.23;5.30;;;;;;;18.95;85.32;99321.81;5021017;28;20101;-61
2021/08/13 01:36:11;;;;;;;7.43;5.65;;;;;;;18.96;85.41;99318.28;5021815;28;20330;-62
2021/08/13 01:39:01;;;;;;;6.57;5.60;;;;;;;18.59;84.74;99271.50;5021084;28;20099;-62
2021/08/13 01:41:49;;;;;;;7.03;5.25;;;;;;;18.67;84.70;99288.53;5021209;28;20033;-62
2021/08/13 01:44:36;;;;;;;8.55;5.53;;;;;;;18.82;84.85;99326.13;5022903;28;20100;-62
2021/08/13 01:47:23;;;;;;;7.35;5.30;;;;;;;18.79;85.20;99327.16;5021956;28;20270;-62
2021/08/13 01:50:09;;;;;;;7.43;4.88;;;;;;;18.77;85.49;99335.13;5021300;28;20298;-61
2021/08/13 01:52:57;;;;;;;6.75;5.68;;;;;;;18.78;85.56;99349.94;5021647;28;20233;-60
2021/08/13 01:55:45;;;;;;;7.25;5.80;;;;;;;18.74;85.56;99355.44;5022141;28;20026;-61
2021/08/13 01:58:31;;;;;;;7.68;5.90;;;;;;;18.71;85.83;99356.50;5021122;28;20084;-61
2021/08/13 02:01:17;;;;;;;6.18;5.63;;;;;;;18.69;86.16;99366.22;5021330;28;20203;-61
2021/08/13 02:04:05;;;;;;;9.52;5.93;;;;;;;18.62;85.33;99365.75;5022261;28;20033;-62
2021/08/13 02:06:52;;;;;;;11.52;5.65;;;;;;;18.35;85.38;99323.66;5020786;28;20045;-62
2021/08/13 02:09:40;;;;;;;5.70;5.20;;;;;;;18.41;84.81;99333.78;5022043;28;20056;-63
2021/08/13 02:12:25;;;;;;;7.30;5.68;;;;;;;18.67;85.11;99369.88;5021759;28;20029;-62
2021/08/13 02:15:16;;;;;;;6.32;5.40;;;;;;;18.73;84.38;99370.34;5021686;28;20049;-63
2021/08/13 02:18:10;;;;;;;9.07;5.63;;;;;;;18.41;83.72;99331.19;5026634;28;20286;-63
2021/08/13 02:21:00;;;;;;;8.40;5.60;;;;;;;18.68;84.07;99380.25;5024627;28;20034;-63
2021/08/13 02:23:46;;;;;;;7.32;5.15;;;;;;;18.67;83.56;99390.84;5024634;28;20282;-61
2021/08/13 02:26:32;;;;;;;6.68;5.10;;;;;;;18.70;82.76;99394.16;5025058;28;20054;-62
2021/08/13 02:29:18;;;;;;;10.70;5.25;;;;;;;18.62;82.88;99397.22;5024678;28;20037;-62
2021/08/13 02:32:04;;;;;;;8.15;5.00;;;;;;;18.66;82.60;99394.44;5024110;28;20022;-62
2021/08/13 02:34:51;;;;;;;5.38;4.65;;;;;;;18.71;83.09;99400.22;5023997;28;20392;-62
2021/08/13 02:37:57;;;;;;;5.10;4.60;;;;;;;18.64;83.18;99407.66;5024528;28;20030;-62
2021/08/13 02:40:56;;;;;;;7.00;5.00;;;;;;;18.57;83.11;99404.53;5024325;28;20034;-62
2021/08/13 02:43:49;;;;;;;5.63;4.28;;;;;;;18.35;82.69;99389.19;5024521;28;20041;-63
2021/08/13 02:46:42;;;;;;;6.82;4.53;;;;;;;18.50;81.82;99416.31;5025382;28;20316;-63
2021/08/13 02:49:28;;;;;;;7.75;4.10;;;;;;;18.49;82.13;99427.72;5024081;28;20353;-62
2021/08/13 02:52:19;;;;;;;8.05;4.32;;;;;;;18.08;81.26;99370.69;5025133;28;20018;-62
2021/08/13 02:55:06;;;;;;;6.13;3.92;;;;;;;18.40;81.32;99439.59;5025405;28;20030;-61
2021/08/13 02:57:58;;;;;;;4.72;3.38;;;;;;;18.26;80.10;99406.31;5023781;28;20026;-63
2021/08/13 03:00:45;;;;;;;8.00;3.60;;;;;;;18.43;80.01;99423.69;5024684;28;20267;-63
2021/08/13 03:03:31;;;;;;;4.18;3.47;;;;;;;18.34;79.86;99413.75;5024688;28;20338;-63
2021/08/13 03:06:20;;;;;;;5.20;3.72;;;;;;;18.41;80.11;99429.94;5023248;28;20033;-62
2021/08/13 03:09:06;;;;;;;5.60;3.85;;;;;;;18.46;80.62;99428.75;5024660;28;20042;-62
2021/08/13 03:11:54;;;;;;;5.75;3.70;;;;;;;18.14;79.51;99379.97;5024711;28;20068;-62
2021/08/13 03:14:40;;;;;;;5.07;3.42;;;;;;;18.40;79.87;99423.03;5024443;28;20053;-63
2021/08/13 03:17:26;;;;;;;5.10;3.75;;;;;;;18.50;79.99;99423.31;5023902;28;20041;-63
2021/08/13 03:20:12;;;;;;;3.65;3.35;;;;;;;18.47;79.45;99427.00;5023337;28;20323;-63
2021/08/13 03:22:58;;;;;;;3.95;3.42;;;;;;;18.49;79.56;99425.13;5024137;28;20032;-63
2021/08/13 03:25:44;;;;;;;6.60;3.60;;;;;;;18.49;79.84;99432.97;5024138;28;20124;-63
2021/08/13 03:28:30;;;;;;;4.57;3.63;;;;;;;18.51;79.77;99435.50;5022329;28;20026;-63
2021/08/13 03:31:46;;;;;;;3.90;3.55;;;;;;;18.53;79.64;99439.75;5024050;28;20025;-63
2021/08/13 03:34:32;;;;;;;4.47;4.07;;;;;;;18.52;78.95;99440.66;5020819;28;20034;-62
2021/08/13 03:37:19;;;;;;;6.95;3.47;;;;;;;18.59;78.94;99443.78;5024062;28;20018;-62
2021/08/13 03:40:06;;;;;;;3.50;2.70;;;;;;;18.37;76.38;99441.56;5023240;28;20331;-62
2021/08/13 03:42:52;;;;;;;4.50;2.95;;;;;;;18.49;76.16;99443.47;5023467;28;20021;-63
2021/08/13 03:45:38;;;;;;;3.38;2.72;;;;;;;18.55;75.93;99442.28;5023842;28;20120;-62
2021/08/13 03:48:24;;;;;;;3.35;2.58;;;;;;;18.44;75.36;99450.75;5023596;28;20397;-62
2021/08/13 03:51:10;;;;;;;4.28;2.30;;;;;;;18.51;75.00;99454.69;5020176;28;20330;-62
2021/08/13 03:53:55;;;;;;;4.28;2.60;;;;;;;18.45;75.07;99455.06;5023533;28;20030;-62
2021/08/13 03:56:41;;;;;;;7.95;5.13;;;;;;;18.45;75.51;99458.56;5023321;28;20350;-62
2021/08/13 03:59:27;;;;;;;4.63;3.50;;;;;;;18.50;75.58;99452.16;5022935;28;20092;-62
2021/08/13 04:02:13;;;;;;;3.17;2.45;;;;;;;18.42;75.04;99445.59;5022896;28;20036;-62
2021/08/13 04:04:59;;;;;;;3.83;2.78;;;;;;;18.40;75.29;99459.75;5023061;28;20024;-63
2021/08/13 04:07:45;;;;;;;3.00;2.40;;;;;;;18.48;74.87;99464.53;5023093;28;20026;-61
2021/08/13 04:10:31;;;;;;;5.03;2.40;;;;;;;18.54;74.82;99461.56;5022403;28;20037;-61
2021/08/13 04:13:17;;;;;;;4.85;2.83;;;;;;;18.41;75.11;99454.41;5023254;28;20026;-61
2021/08/13 04:16:03;;;;;;;3.10;2.63;;;;;;;18.48;74.83;99451.44;5022974;28;20042;-61
2021/08/13 04:18:49;;;;;;;5.32;2.60;;;;;;;18.51;75.06;99459.13;5023372;28;20029;-62
2021/08/13 04:21:35;;;;;;;4.90;2.80;;;;;;;18.50;75.38;99462.66;5015497;28;20037;-62
2021/08/13 04:24:21;;;;;;;3.47;2.60;;;;;;;18.55;74.05;99458.00;5022906;28;20021;-62
2021/08/13 04:27:07;;;;;;;3.13;2.78;;;;;;;18.48;74.57;99459.28;5022809;28;20022;-62
2021/08/13 04:29:53;;;;;;;3.38;2.50;;;;;;;18.46;73.74;99468.09;5022315;28;20137;-61
2021/08/13 04:32:41;;;;;;;3.85;2.60;;;;;;;18.52;73.72;99466.88;5023218;28;20076;-62
2021/08/13 04:35:27;;;;;;;5.22;2.45;;;;;;;18.53;73.71;99465.13;5021910;28;20232;-62
2021/08/13 04:38:12;;;;;;;3.65;2.38;;;;;;;18.52;74.49;99466.06;5022258;28;20026;-62
2021/08/13 04:40:58;;;;;;;3.33;2.42;;;;;;;18.59;73.43;99465.59;5022973;28;20032;-62
2021/08/13 04:43:45;;;;;;;3.13;2.38;;;;;;;18.62;73.22;99464.59;5022817;28;20018;-62
2021/08/13 04:46:31;;;;;;;3.00;2.30;;;;;;;18.60;72.83;99451.56;5023513;28;20040;-62
2021/08/13 04:49:16;;;;;;;5.07;2.85;;;;;;;18.66;72.42;99452.16;5022223;28;20017;-62
2021/08/13 04:52:04;;;;;;;6.63;2.70;;;;;;;18.65;72.87;99468.81;5022605;28;20033;-62
2021/08/13 04:54:51;;;;;;;3.90;2.60;;;;;;;18.68;72.70;99458.97;5022490;28;20037;-62
2021/08/13 04:57:38;;;;;;;3.90;2.55;;;;;;;18.72;73.18;99464.88;5022802;28;20101;-63
2021/08/13 05:00:24;;;;;;;4.07;2.70;;;;;;;18.74;73.18;99453.38;5012791;28;20096;-61
2021/08/13 05:03:10;;;;;;;4.53;3.03;;;;;;;18.80;72.08;99458.25;5020586;28;20034;-62
2021/08/13 05:05:56;;;;;;;3.10;2.80;;;;;;;18.93;72.65;99454.94;5016874;28;20266;-62
2021/08/13 05:08:42;;;;;;;2.97;2.60;;;;;;;19.02;72.27;99459.63;5006711;28;20270;-63
2021/08/13 05:11:27;;;;;;;4.05;2.60;;;;;;;19.10;71.09;99460.00;5021819;28;20029;-63
2021/08/13 05:14:13;;;;;;;6.28;2.78;;;;;;;19.05;69.88;99456.81;5021921;28;20061;-63
2021/08/13 05:16:59;;;;;;;3.17;2.60;;;;;;;19.30;69.13;99447.44;5021747;28;20026;-63
2021/08/13 05:19:45;;;;;;;4.15;2.63;;;;;;;19.33;68.96;99460.38;5020941;28;20049;-63
2021/08/13 05:22:33;;;;;;;3.85;2.45;;;;;;;19.41;68.69;99463.41;5020200;28;20028;-63
2021/08/13 05:25:20;;;;;;;3.33;3.03;;;;;;;19.37;69.57;99461.91;5021742;28;20207;-63
2021/08/13 05:28:06;;;;;;;4.63;2.40;;;;;;;19.46;69.11;99463.09;5019666;28;20026;-63
2021/08/13 05:30:52;;;;;;;3.00;2.75;;;;;;;19.52;68.97;99460.09;5020221;28;20025;-63
2021/08/13 05:33:38;;;;;;;2.70;2.50;;;;;;;19.44;69.31;99463.19;5020386;28;20214;-63
2021/08/13 05:36:24;;;;;;;4.97;3.13;;;;;;;19.51;69.04;99462.81;5020412;28;20075;-62
2021/08/13 05:39:09;;;;;;;3.92;2.67;;;;;;;19.57;68.09;99473.78;5022955;28;20326;-62
2021/08/13 05:41:56;;;;;;;3.92;2.80;;;;;;;19.58;68.88;99475.47;5020391;28;20033;-61
2021/08/13 05:44:41;;;;;;;3.20;2.22;;;;;;;19.66;68.27;99485.50;5021876;28;20036;-63
2021/08/13 05:47:27;;;;;;;4.80;2.22;;;;;;;19.56;68.30;99487.03;5022170;28;20412;-63
2021/08/13 05:50:16;;;;;;;3.50;2.58;;;;;;;19.47;69.02;99484.03;5010742;28;20041;-63
2021/08/13 05:53:02;;;;;;;5.65;2.45;;;;;;;19.30;68.62;99477.19;5018804;28;20331;-62
2021/08/13 05:55:48;;;;;;;6.78;2.45;;;;;;;19.23;69.48;99490.78;5022026;28;20310;-61
2021/08/13 05:58:34;;;;;;;4.28;2.63;;;;;;;19.18;69.73;99505.97;5020720;28;20034;-62
2021/08/13 06:01:19;;;;;;;3.17;2.53;;;;;;;19.19;70.03;99511.13;5022448;28;20060;-62
2021/08/13 06:04:05;;;;;;;4.13;2.17;;;;;;;19.20;69.10;99510.19;5020816;28;20033;-62
2021/08/13 06:06:51;;;;;;;5.88;2.67;;;;;;;19.20;69.50;99514.59;5021008;28;20107;-62
2021/08/13 06:09:37;;;;;;;4.05;2.30;;;;;;;19.22;69.55;99516.16;5020844;28;20365;-61
2021/08/13 06:12:23;;;;;;;5.43;2.50;;;;;;;19.24;69.44;99522.19;5020781;28;20030;-62
2021/08/13 06:15:09;;;;;;;5.03;2.78;;;;;;;19.26;69.77;99511.59;5021422;28;20067;-62
2021/08/13 06:17:56;;;;;;;5.93;2.22;;;;;;;19.37;69.59;99513.56;5002448;28;20133;-62
2021/08/13 06:20:42;;;;;;;3.22;2.22;;;;;;;19.45;68.41;99514.81;5017322;28;20025;-62
2021/08/13 06:23:28;;;;;;;2.28;2.00;;;;;;;19.55;68.29;99508.97;5021410;28;20028;-64
2021/08/13 06:26:14;;;;;;;2.28;1.92;;;;;;;19.66;68.39;99517.03;5021016;28;20137;-64
2021/08/13 06:29:00;;;;;;;3.55;2.20;;;;;;;19.69;68.37;99519.47;5019888;28;20026;-64
2021/08/13 06:31:48;;;;;;;4.47;2.35;;;;;;;19.73;68.59;99534.09;5020422;28;20037;-62
2021/08/13 06:34:34;;;;;;;5.57;2.50;;;;;;;19.62;68.76;99536.56;5020672;28;20026;-62
2021/08/13 06:37:20;;;;;;;4.30;2.42;;;;;;;19.69;68.63;99534.41;5020449;28;20022;-63
2021/08/13 06:40:06;;;;;;;3.30;2.03;;;;;;;19.61;68.99;99526.97;5020246;28;20037;-62
2021/08/13 06:42:53;;;;;;;2.25;1.90;;;;;;;19.69;69.40;99535.22;5021366;28;20045;-64
2021/08/13 06:45:38;;;;;;;3.85;2.10;;;;;;;19.62;68.57;99533.91;5021156;28;20087;-63
2021/08/13 06:48:24;;;;;;;3.35;2.10;;;;;;;19.64;68.81;99542.56;5019196;28;20350;-63
2021/08/13 06:51:10;;;;;;;4.13;2.47;;;;;;;19.57;68.99;99538.63;5021047;28;20357;-64
2021/08/13 06:53:56;;;;;;;3.55;2.45;;;;;;;19.52;68.66;99552.03;5021506;28;20026;-61
2021/08/13 06:56:42;;;;;;;3.10;2.20;;;;;;;19.57;69.45;99549.13;5021321;28;20025;-62
2021/08/13 06:59:28;;;;;;;2.80;2.20;;;;;;;19.57;69.28;99551.78;5021354;28;20036;-61
2021/08/13 07:02:15;;;;;;;2.47;2.28;;;;;;;19.43;69.64;99555.22;5020367;28;20183;-61
2021/08/13 07:05:01;;;;;;;8.55;2.50;;;;;;;19.54;69.70;99554.56;5024247;28;20075;-63
2021/08/13 07:07:47;;;;;;;5.20;2.60;;;;;;;19.39;70.22;99557.19;5024862;28;20100;-63
2021/08/13 07:10:33;;;;;;;6.38;2.25;;;;;;;19.39;70.32;99569.47;5024348;28;20112;-64
2021/08/13 07:13:19;;;;;;;5.47;2.63;;;;;;;19.48;70.24;99572.41;5024196;28;20214;-63
2021/08/13 07:16:05;;;;;;;2.70;2.08;;;;;;;19.51;70.31;99565.25;5023800;28;20113;-63
2021/08/13 07:18:51;;;;;;;4.57;2.42;;;;;;;19.52;70.68;99574.84;5023735;28;20091;-63
2021/08/13 07:21:37;;;;;;;5.30;2.50;;;;;;;19.51;70.84;99574.00;5022789;28;20030;-63
2021/08/13 07:24:23;;;;;;;3.72;2.63;;;;;;;19.43;70.52;99569.19;5024026;28;20076;-63
2021/08/13 07:27:09;;;;;;;4.70;2.50;;;;;;;19.44;70.84;99570.88;5023716;28;20030;-63
2021/08/13 07:29:55;;;;;;;4.35;2.20;;;;;;;19.50;70.96;99569.69;5022143;28;20041;-64
2021/08/13 07:32:44;;;;;;;6.85;2.65;;;;;;;19.62;69.97;99562.81;5021516;28;20084;-64
2021/08/13 07:35:30;;;;;;;3.03;2.40;;;;;;;19.65;68.98;99563.50;5024093;28;20377;-65
2021/08/13 07:38:15;;;;;;;4.90;2.25;;;;;;;19.78;69.18;99558.31;5023186;28;20030;-64
2021/08/13 07:41:01;;;;;;;5.03;2.47;;;;;;;19.89;69.70;99567.34;5023971;28;20037;-66
2021/08/13 07:43:47;;;;;;;3.30;2.42;;;;;;;20.00;68.94;99564.91;5019221;28;20334;-64
2021/08/13 07:46:33;;;;;;;4.40;2.33;;;;;;;20.14;68.18;99574.56;5023753;28;20060;-62
2021/08/13 07:49:19;;;;;;;5.38;2.38;;;;;;;20.23;68.41;99573.13;5022518;28;20030;-66
2021/08/13 07:52:06;;;;;;;3.85;2.72;;;;;;;20.22;68.78;99577.53;5022122;28;20268;-66
2021/08/13 07:54:52;;;;;;;5.88;2.63;;;;;;;20.22;68.03;99588.03;5024037;28;20392;-63
2021/08/13 07:57:38;;;;;;;3.65;2.65;;;;;;;20.14;68.49;99583.28;5023734;28;20097;-64
2021/08/13 08:00:24;;;;;;;3.55;2.38;;;;;;;20.20;68.27;99591.75;5020511;28;20191;-63
2021/08/13 08:03:10;;;;;;;4.25;2.58;;;;;;;20.19;67.62;99596.13;5023866;28;20021;-64
2021/08/13 08:05:56;;;;;;;5.70;2.47;;;;;;;20.08;67.41;99599.47;5021670;28;20068;-66
2021/08/13 08:08:42;;;;;;;5.10;2.55;;;;;;;20.06;67.83;99601.31;5022862;28;20018;-64
2021/08/13 08:11:27;;;;;;;7.00;2.60;;;;;;;19.97;67.86;99612.41;5023693;28;20096;-62
2021/08/13 08:14:13;;;;;;;4.60;2.40;;;;;;;20.09;67.58;99609.00;5022908;28;20073;-63
2021/08/13 08:16:59;;;;;;;3.75;2.47;;;;;;;20.12;68.19;99616.72;5021567;28;20030;-64
2021/08/13 08:19:45;;;;;;;6.45;3.20;;;;;;;20.19;69.08;99619.81;5022898;28;20064;-63
2021/08/13 08:22:31;;;;;;;6.22;2.70;;;;;;;20.20;67.59;99623.28;5005220;28;20045;-69
2021/08/13 08:25:17;;;;;;;6.15;2.78;;;;;;;20.24;67.90;99622.16;5023165;28;20018;-68
2021/08/13 08:28:03;;;;;;;6.20;3.08;;;;;;;20.31;68.18;99615.59;5023021;28;20104;-67
2021/08/13 08:30:49;;;;;;;6.20;2.95;;;;;;;20.39;68.24;99629.06;5021987;28;20144;-67
2021/08/13 08:33:35;;;;;;;4.72;2.70;;;;;;;20.44;67.78;99621.75;5021702;28;20026;-68
2021/08/13 08:36:21;;;;;;;4.47;2.60;;;;;;;20.62;67.08;99611.84;5021599;28;20030;-67
2021/08/13 08:39:07;;;;;;;7.53;3.50;;;;;;;20.78;67.71;99624.00;5022610;28;20262;-67
2021/08/13 08:41:53;;;;;;;6.22;2.50;;;;;;;20.92;66.15;99628.38;5013398;28;20061;-65
2021/08/13 08:44:39;;;;;;;5.10;2.60;;;;;;;20.85;66.72;99626.16;5020428;28;20196;-68
2021/08/13 08:47:26;;;;;;;3.47;2.70;;;;;;;20.82;65.89;99633.41;5020915;28;20022;-65
2021/08/13 08:50:12;;;;;;;5.80;2.67;;;;;;;20.66;66.32;99638.78;5020734;28;20097;-63
2021/08/13 08:53:01;;;;;;;3.25;2.40;;;;;;;20.52;66.33;99630.00;5022418;28;20041;-63
2021/08/13 08:55:48;;;;;;;5.57;3.08;;;;;;;20.60;67.04;99641.81;5022999;28;20025;-64
2021/08/13 08:58:35;;;;;;;3.65;3.10;;;;;;;20.61;67.17;99644.34;5022226;28;20045;-66
2021/08/13 09:01:22;;;;;;;3.72;2.50;;;;;;;20.71;67.47;99631.47;5019280;28;20018;-64
2021/08/13 09:04:09;;;;;;;6.18;2.90;;;;;;;20.72;67.45;99648.94;5022056;28;20101;-64
2021/08/13 09:06:54;;;;;;;6.05;2.83;;;;;;;20.74;66.81;99644.44;5022352;28;20036;-65
2021/08/13 09:09:40;;;;;;;3.20;2.70;;;;;;;20.83;67.35;99641.19;5020950;28;20353;-65
2021/08/13 09:12:26;;;;;;;4.88;3.20;;;;;;;20.73;66.70;99641.91;5022301;28;20040;-65
2021/08/13 09:15:33;;;;;;;4.57;2.88;;;;;;;20.62;66.66;99624.13;5020534;28;20271;-65
2021/08/13 09:18:24;;;;;;;3.22;2.72;;;;;;;20.83;66.87;99654.34;5019764;28;20096;-64
2021/08/13 09:21:19;;;;;;;9.40;3.63;;;;;;;20.69;67.00;99647.38;5021868;28;20319;-64
2021/08/13 09:24:11;;;;;;;5.38;3.10;;;;;;;20.86;68.36;99663.84;5022451;28;20022;-66
2021/08/13 09:27:34;;;;;;;5.95;3.15;;;;;;;20.56;67.05;99606.94;5017933;28;20028;-66
2021/08/13 09:30:20;;;;;;;4.75;2.78;;;;;;;20.82;66.74;99663.22;5021502;28;20025;-67
2021/08/13 09:33:08;;;;;;;4.72;2.80;;;;;;;20.80;66.39;99672.16;5018637;28;20036;-66
2021/08/13 09:35:59;;;;;;;5.95;2.92;;;;;;;20.79;67.64;99663.44;5020837;28;20033;-67
2021/08/13 09:38:47;;;;;;;5.07;3.10;;;;;;;20.54;67.46;99635.16;5019086;28;20022;-65
2021/08/13 09:41:50;;;;;;;5.55;3.20;;;;;;;20.76;67.18;99695.19;5019271;28;20103;-69
2021/08/13 09:44:38;;;;;;;;;;;;;;;20.72;68.04;99685.78;5024504;28;20123;-65
2021/08/13 09:47:38;;;;;;;3.80;3.30;;;;;;;20.29;67.10;99649.84;5006142;28;20073;-63
2021/08/13 09:50:53;;;;;;;4.28;2.90;;;;;;;20.60;67.46;99704.97;5022691;28;20073;-65
2021/08/13 09:53:56;;;;;;;6.60;3.53;;;;;;;20.84;66.87;99692.06;5018812;28;20203;-64
2021/08/13 09:56:42;;;;;;;3.67;3.38;;;;;;;20.96;66.66;99703.59;5021955;28;20071;-67
2021/08/13 09:59:28;;;;;;;7.28;3.10;;;;;;;21.03;66.37;99697.84;5022736;28;20314;-63
2021/08/13 10:02:14;;;;;;;4.28;3.47;;;;;;;21.12;65.54;99700.81;5022317;28;20223;-67
2021/08/13 10:05:21;;;;;;;7.22;3.55;;;;;;;21.20;66.05;99702.00;5021330;28;20218;-63
2021/08/13 10:08:08;;;;;;;6.15;3.50;;;;;;;21.38;66.14;99714.94;5021984;28;20037;-64
2021/08/13 10:10:54;;;;;;;7.15;3.55;;;;;;;21.29;65.63;99715.50;5022968;28;20322;-67
2021/08/13 10:13:42;;;;;;;7.13;3.85;;;;;;;21.34;64.95;99718.69;5020444;28;20049;-66
2021/08/13 10:16:28;;;;;;;6.30;3.30;;;;;;;21.27;64.41;99720.88;5021219;28;20104;-67
2021/08/13 10:19:15;;;;;;;3.97;3.40;;;;;;;21.40;65.42;99710.38;5022752;28;20040;-66
2021/08/13 10:22:02;;;;;;;5.70;3.47;;;;;;;21.50;63.95;99732.53;5021674;28;20231;-67
2021/08/13 10:24:48;;;;;;;8.35;3.40;;;;;;;21.59;64.50;99715.31;5018255;28;20049;-69
2021/08/13 10:27:34;;;;;;;5.88;3.50;;;;;;;21.71;63.35;99734.72;5022419;28;20287;-68
2021/08/13 10:30:22;;;;;;;12.10;4.13;;;;;;;21.51;63.41;99729.00;5019757;28;20075;-67
2021/08/13 10:33:08;;;;;;;5.80;3.28;;;;;;;21.71;63.95;99738.22;5021300;28;20028;-66
2021/08/13 10:35:57;;;;;;;7.28;3.55;;;;;;;21.80;63.94;99734.09;5020166;28;20025;-68
2021/08/13 10:38:48;;;;;;;4.15;3.40;;;;;;;21.65;62.27;99720.16;5024932;28;20021;-68
2021/08/13 10:41:38;;;;;;;5.65;3.80;;;;;;;21.39;63.94;99671.78;5038409;28;20041;-69
2021/08/13 10:44:31;;;;;;;4.88;3.97;;;;;;;21.58;63.21;99699.59;5024302;28;20034;-69
2021/08/13 10:47:25;;;;;;;5.93;3.97;;;;;;;21.63;62.58;99750.22;5025364;28;20226;-67
2021/08/13 10:50:15;;;;;;;4.30;3.60;;;;;;;21.50;63.79;99739.59;5024992;28;20091;-68
2021/08/13 10:53:01;;;;;;;5.22;3.50;;;;;;;21.41;63.35;99748.97;5022794;28;20227;-68
2021/08/13 10:55:48;;;;;;;7.22;4.20;;;;;;;21.27;63.87;99743.75;5024618;28;20022;-65
2021/08/13 10:58:37;;;;;;;7.32;3.92;;;;;;;21.51;62.74;99749.22;5026025;28;20033;-66
2021/08/13 11:01:23;;;;;;;4.65;3.60;;;;;;;21.54;63.11;99755.16;5025223;28;20280;-68
2021/08/13 11:04:10;;;;;;;5.90;3.65;;;;;;;21.53;63.83;99747.34;5024899;28;20060;-68
2021/08/13 11:06:56;;;;;;;5.85;4.18;;;;;;;21.61;64.02;99755.59;5024417;28;20037;-68
2021/08/13 11:09:42;;;;;;;7.78;4.00;;;;;;;21.65;63.94;99757.06;5024755;28;20029;-68
2021/08/13 11:12:28;;;;;;;6.38;4.10;;;;;;;21.81;63.22;99753.41;5025560;28;20075;-68
2021/08/13 11:15:34;;;;;;;4.88;4.13;;;;;;;21.76;64.37;99729.97;5024971;28;20341;-67
2021/08/13 11:18:38;;;;;;;4.72;3.38;;;;;;;21.64;63.01;99715.84;5024484;28;20033;-68
2021/08/13 11:21:36;;;;;;;4.82;3.67;;;;;;;21.64;62.46;99721.13;5023887;28;20096;-68
2021/08/13 11:24:24;;;;;;;4.53;3.83;;;;;;;21.94;63.16;99756.06;5025537;28;20221;-66
2021/08/13 11:27:12;;;;;;;8.68;4.03;;;;;;;21.96;62.54;99767.34;5021161;28;20041;-68
2021/08/13 11:29:58;;;;;;;8.38;3.85;;;;;;;22.05;62.66;99753.56;5006993;28;20101;-69
2021/08/13 11:32:45;;;;;;;7.05;4.50;;;;;;;22.09;63.98;99762.09;5023810;28;20064;-66
2021/08/13 11:35:37;;;;;;;6.97;4.15;;;;;;;22.09;62.11;99765.59;5024191;28;20022;-66
2021/08/13 11:38:41;;;;;;;9.35;4.07;;;;;;;22.16;61.22;99761.56;5024134;28;20041;-67
2021/08/13 11:41:28;;;;;;;7.05;3.65;;;;;;;22.18;61.84;99758.84;5011044;28;20263;-70
2021/08/13 11:44:20;;;;;;;5.10;3.70;;;;;;;22.02;60.89;99720.31;5005340;28;20081;-67
2021/08/13 11:47:06;;;;;;;;;;;;;;;22.22;61.54;99771.69;5005401;28;20350;-68
2021/08/13 11:49:52;;;;;;;6.85;3.85;;;;;;;22.16;62.17;99772.13;5005684;28;19909;-67
2021/08/13 11:52:45;;;;;;;8.02;3.85;;;;;;;21.83;62.19;99733.91;5014984;28;20315;-67
2021/08/13 11:55:34;;;;;;;9.43;3.88;;;;;;;22.12;61.62;99780.34;5023813;28;20038;-66
2021/08/13 11:58:23;;;;;;;7.57;4.22;;;;;;;21.80;62.02;99747.28;5024194;28;20032;-65
2021/08/13 12:01:09;;;;;;;8.20;4.47;;;;;;;21.88;62.08;99783.69;5025162;28;20026;-67
2021/08/13 12:03:55;;;;;;;8.02;4.40;;;;;;;21.99;62.49;99793.50;5023514;28;20037;-66
2021/08/13 12:06:41;;;;;;;8.23;4.43;;;;;;;22.03;62.99;99801.13;5025296;28;20342;-66
2021/08/13 12:09:34;;;;;;;5.43;4.15;;;;;;;22.02;62.32;99795.97;5024747;28;20040;-68
2021/08/13 12:12:28;;;;;;;7.90;4.15;;;;;;;22.01;63.57;99789.81;5005539;28;20030;-68
2021/08/13 12:15:15;;;;;;;5.50;4.20;;;;;;;22.02;61.48;99799.44;5009063;28;20045;-68
2021/08/13 12:18:02;;;;;;;6.72;4.45;;;;;;;22.18;62.56;99796.59;5024467;28;20029;-67
2021/08/13 12:20:49;;;;;;;9.70;4.53;;;;;;;22.10;62.01;99795.44;5023600;28;20033;-64
2021/08/13 12:23:34;;;;;;;7.55;4.22;;;;;;;22.13;61.72;99796.06;5023692;28;20088;-67
2021/08/13 12:26:25;;;;;;;8.35;3.97;;;;;;;21.94;62.74;99756.06;5023078;28;20052;-68
2021/08/13 12:29:30;;;;;;;9.55;4.13;;;;;;;22.18;61.21;99793.97;5023160;28;20030;-64
2021/08/13 12:32:16;;;;;;;7.00;4.72;;;;;;;22.24;62.98;99795.34;5004570;28;20097;-65
2021/08/13 12:35:03;;;;;;;8.38;5.25;;;;;;;22.19;61.89;99787.75;5004582;28;20061;-65
2021/08/13 12:37:50;;;;;;;10.18;4.80;;;;;;;22.18;62.15;99793.13;5003865;28;20105;-65
2021/08/13 12:40:47;;;;;;;6.38;4.60;;;;;;;22.09;62.21;99767.34;5008975;28;20030;-67
2021/08/13 12:43:33;;;;;;;6.60;5.05;;;;;;;22.33;62.95;99799.16;5023250;28;20033;-65
2021/08/13 12:46:19;;;;;;;10.57;5.00;;;;;;;22.23;62.67;99805.06;5023437;28;20041;-66
2021/08/13 12:49:06;;;;;;;8.50;5.30;;;;;;;22.38;61.77;99807.63;5023088;28;20264;-64
2021/08/13 12:52:27;;;;;;;7.05;4.50;;;;;;;22.39;61.72;99806.69;5006953;28;20034;-64
2021/08/13 12:55:14;;;;;;;7.90;4.85;;;;;;;22.37;62.34;99809.41;5001528;28;20616;-65
2021/08/13 12:58:00;;;;;;;6.70;5.03;;;;;;;22.39;62.51;99817.25;5016118;28;20054;-65
2021/08/13 13:00:46;;;;;;;7.03;5.05;;;;;;;22.45;62.44;99814.16;5022119;28;20030;-64
2021/08/13 13:03:32;;;;;;;8.07;4.35;;;;;;;22.37;63.43;99811.22;5023391;28;20025;-67
2021/08/13 13:06:23;;;;;;;8.88;4.90;;;;;;;22.16;62.90;99771.25;5024199;28;20220;-66
2021/08/13 13:09:10;;;;;;;7.82;4.63;;;;;;;22.48;60.75;99816.59;5023958;28;20033;-68
2021/08/13 13:12:14;;;;;;;9.70;4.75;;;;;;;22.55;60.65;99819.66;5023956;28;20358;-67